Time;durP1;ratioP1;P1;durP2;ratioP2;P2;SDS_P1;SDS_P2;PMS_P1;PMS_P2;Temp;Humidity;BMP_temperature;BMP_pressure;BME280_temperature;BME280_humidity;BME280_pressure;Samples;Min_cycle;Max_cycle;Signal;HPM_P1;HPM_P2
2022/09/04 00:01:29;;;;;;;;;;;;;;;18.24;42.81;101868.16;5051672;28;20399;-50
2022/09/04 00:04:13;;;;;;;;;;;;;;;18.22;42.76;101864.72;5062076;28;19974;-56
2022/09/04 00:06:48;;;;;;;;;;;;;;;18.18;42.86;101869.44;5053317;28;19920;-50
2022/09/04 00:09:37;;;;;;;;;;;;;;;18.17;42.79;101856.22;5061991;28;19932;-52
2022/09/04 00:12:09;;;;;;;;;;;;;;;18.14;42.83;101862.63;5038682;28;19965;-49
2022/09/04 00:14:34;;;;;;;;;;;;;;;18.11;42.76;101865.50;5053838;28;19981;-53
2022/09/04 00:17:02;;;;;;;;;;;;;;;18.07;42.96;101856.06;5054639;28;19924;-52
2022/09/04 00:19:36;;;;;;;;;;;;;;;18.03;42.88;101862.56;5055734;28;19948;-55
2022/09/04 00:22:05;;;;;;;;;;;;;;;18.00;42.94;101860.09;5055732;28;20638;-53
2022/09/04 00:24:38;;;;;;;;;;;;;;;17.95;42.96;101866.56;5057919;28;19924;-51
2022/09/04 00:27:09;;;;;;;;;;;;;;;17.93;42.91;101860.50;5055051;28;20423;-54
2022/09/04 00:29:53;;;;;;;;;;;;;;;17.91;42.83;101866.91;5059146;28;20380;-51
2022/09/04 00:32:23;;;;;;;;;;;;;;;17.88;42.99;101865.31;5047376;28;19939;-50
2022/09/04 00:34:51;;;;;;;;;;;;;;;17.85;43.20;101862.88;5057005;28;20288;-52
2022/09/04 00:37:20;;;;;;;;;;;;;;;17.83;43.01;101870.13;5053416;28;20018;-50
2022/09/04 00:39:56;;;;;;;;;;;;;;;17.80;43.12;101870.31;5030346;28;19928;-51
2022/09/04 00:42:30;;;;;;;;;;;;;;;17.78;42.99;101866.91;5051400;28;20303;-52
2022/09/04 00:45:03;;;;;;;;;;;;;;;17.78;43.10;101872.25;5063040;28;20019;-56
2022/09/04 00:47:47;;;;;;;;;;;;;;;17.76;43.10;101861.72;5048329;28;19974;-52
2022/09/04 00:50:21;;;;;;;;;;;;;;;17.74;43.09;101866.28;5057136;28;20010;-51
2022/09/04 00:53:05;;;;;;;;;;;;;;;17.71;43.06;101863.84;5052777;28;20023;-56
2022/09/04 00:55:37;;;;;;;;;;;;;;;17.70;43.19;101869.28;5054686;28;19927;-56
2022/09/04 00:58:06;;;;;;;;;;;;;;;17.66;43.13;101872.16;5050175;28;20415;-51
2022/09/04 01:00:31;;;;;;;;;;;;;;;17.63;43.38;101869.69;5054747;28;19928;-52
2022/09/04 01:03:02;;;;;;;;;;;;;;;17.61;43.34;101873.44;5047609;28;21629;-50
2022/09/04 01:05:44;;;;;;;;;;;;;;;17.58;43.13;101871.84;5057258;28;19978;-50
2022/09/04 01:08:09;;;;;;;;;;;;;;;17.56;43.21;101873.75;5049944;28;19921;-51
2022/09/04 01:10:35;;;;;;;;;;;;;;;17.54;43.49;101870.34;5056810;28;19928;-50
2022/09/04 01:13:19;;;;;;;;;;;;;;;17.51;43.30;101870.56;5057852;28;19920;-50
2022/09/04 01:16:04;;;;;;;;;;;;;;;17.49;43.53;101869.81;5060762;28;19924;-50
2022/09/04 01:18:33;;;;;;;;;;;;;;;17.48;43.49;101871.63;5035891;28;19924;-51
2022/09/04 01:21:17;;;;;;;;;;;;;;;17.46;43.57;101876.19;5056372;28;19977;-50
2022/09/04 01:23:42;;;;;;;;;;;;;;;17.44;43.54;101869.28;5054139;28;19916;-52
2022/09/04 01:26:12;;;;;;;;;;;;;;;17.43;43.67;101872.91;5057054;28;19931;-50
2022/09/04 01:28:44;;;;;;;;;;;;;;;17.38;43.61;101865.25;5056954;28;19916;-51
2022/09/04 01:31:18;;;;;;;;;;;;;;;17.34;43.60;101872.56;5052253;28;20368;-50
2022/09/04 01:33:43;;;;;;;;;;;;;;;17.32;43.65;101870.97;5050210;28;19924;-50
2022/09/04 01:36:26;;;;;;;;;;;;;;;17.31;43.66;101874.59;5046162;28;19992;-50
2022/09/04 01:38:55;;;;;;;;;;;;;;;17.27;43.75;101875.75;5052253;28;20018;-51
2022/09/04 01:41:26;;;;;;;;;;;;;;;17.24;43.79;101870.66;5053208;28;21081;-49
2022/09/04 01:43:52;;;;;;;;;;;;;;;17.20;43.80;101867.34;5055102;28;19967;-49
2022/09/04 01:46:43;;;;;;;;;;;;;;;17.17;43.84;101867.53;5052398;28;20011;-51
2022/09/04 01:49:08;;;;;;;;;;;;;;;17.11;43.85;101871.47;5047962;28;20015;-50
2022/09/04 01:51:54;;;;;;;;;;;;;;;17.08;43.87;101878.81;5047350;28;20329;-50
2022/09/04 01:54:25;;;;;;;;;;;;;;;17.02;43.92;101877.44;5054002;28;20033;-50
2022/09/04 01:56:53;;;;;;;;;;;;;;;16.97;44.35;101872.44;5057797;28;19928;-50
2022/09/04 01:59:27;;;;;;;;;;;;;;;16.91;44.20;101878.09;5056868;28;19928;-50
2022/09/04 02:01:57;;;;;;;;;;;;;;;16.85;44.32;101874.06;5050187;28;20031;-50
2022/09/04 02:04:22;;;;;;;;;;;;;;;16.83;44.33;101865.31;5053492;28;20359;-52
2022/09/04 02:06:49;;;;;;;;;;;;;;;16.80;44.29;101872.66;5058234;28;19920;-51
2022/09/04 02:09:31;;;;;;;;;;;;;;;16.76;44.33;101870.19;5051366;28;19960;-51
2022/09/04 02:12:04;;;;;;;;;;;;;;;16.71;44.42;101871.47;5055978;28;19969;-50
2022/09/04 02:14:36;;;;;;;;;;;;;;;16.67;44.43;101868.16;5051801;28;19943;-50
2022/09/04 02:17:07;;;;;;;;;;;;;;;16.63;44.45;101882.59;5057386;28;20425;-51
2022/09/04 02:19:51;;;;;;;;;;;;;;;16.57;44.65;101877.66;5056627;28;19921;-53
2022/09/04 02:22:19;;;;;;;;;;;;;;;16.51;44.86;101870.94;5046070;28;19924;-53
2022/09/04 02:24:48;;;;;;;;;;;;;;;16.50;44.86;101879.03;5051065;28;19937;-51
2022/09/04 02:27:26;;;;;;;;;;;;;;;16.46;44.90;101889.84;5050277;28;20414;-52
2022/09/04 02:30:07;;;;;;;;;;;;;;;16.43;44.95;101884.72;5047139;28;20392;-52
2022/09/04 02:32:44;;;;;;;;;;;;;;;16.40;44.97;101879.66;5054928;28;20146;-52
2022/09/04 02:35:19;;;;;;;;;;;;;;;16.38;44.87;101889.50;5052850;28;19917;-52
2022/09/04 02:37:44;;;;;;;;;;;;;;;16.35;45.04;101884.38;5056517;28;19977;-52
2022/09/04 02:40:25;;;;;;;;;;;;;;;16.34;45.02;101880.03;5046202;28;19924;-54
2022/09/04 02:43:09;;;;;;;;;;;;;;;16.31;45.18;101877.56;5044487;28;20295;-52
2022/09/04 02:45:53;;;;;;;;;;;;;;;16.25;45.17;101885.94;5051460;28;19920;-50
2022/09/04 02:48:39;;;;;;;;;;;;;;;16.21;45.29;101879.94;5054797;28;19925;-51
2022/09/04 02:51:27;;;;;;;;;;;;;;;16.20;45.34;101877.41;5055018;28;20010;-50
2022/09/04 02:53:55;;;;;;;;;;;;;;;16.19;45.37;101875.69;5052581;28;19924;-50
2022/09/04 02:56:26;;;;;;;;;;;;;;;16.15;45.51;101878.53;5056630;28;20047;-51
2022/09/04 02:59:07;;;;;;;;;;;;;;;16.11;45.50;101874.34;5055499;28;19924;-51
2022/09/04 03:01:35;;;;;;;;;;;;;;;16.07;45.58;101866.69;5048823;28;19924;-51
2022/09/04 03:04:07;;;;;;;;;;;;;;;16.03;45.58;101875.81;5054674;28;19962;-50
2022/09/04 03:06:41;;;;;;;;;;;;;;;15.99;45.80;101872.47;5054705;28;20315;-50
2022/09/04 03:09:13;;;;;;;;;;;;;;;15.95;45.79;101868.34;5051563;28;19920;-50
2022/09/04 03:12:05;;;;;;;;;;;;;;;15.91;45.79;101872.97;5053203;28;19925;-50
2022/09/04 03:14:51;;;;;;;;;;;;;;;15.86;45.91;101869.75;5041165;28;20319;-52
2022/09/04 03:17:26;;;;;;;;;;;;;;;15.82;46.01;101870.88;5050676;28;20604;-49
2022/09/04 03:19:51;;;;;;;;;;;;;;;15.78;46.25;101872.88;5050864;28;19924;-51
2022/09/04 03:22:20;;;;;;;;;;;;;;;15.74;46.24;101879.31;5058223;28;20712;-52
2022/09/04 03:24:48;;;;;;;;;;;;;;;15.71;46.28;101879.47;5054480;28;19924;-50
2022/09/04 03:27:15;;;;;;;;;;;;;;;15.69;46.45;101878.72;5056151;28;19924;-51
2022/09/04 03:29:40;;;;;;;;;;;;;;;15.67;46.46;101883.25;5047695;28;19928;-50
2022/09/04 03:32:08;;;;;;;;;;;;;;;15.65;46.56;101879.88;5052738;28;19924;-52
2022/09/04 03:34:45;;;;;;;;;;;;;;;15.64;46.51;101880.81;5059165;28;19977;-51
2022/09/04 03:37:29;;;;;;;;;;;;;;;15.63;46.64;101890.56;5052888;28;20023;-51
2022/09/04 03:40:00;;;;;;;;;;;;;;;15.63;46.57;101898.53;5054922;28;19920;-52
2022/09/04 03:42:28;;;;;;;;;;;;;;;15.60;46.77;101895.22;5049016;28;19942;-49
2022/09/04 03:45:13;;;;;;;;;;;;;;;15.58;46.82;101894.44;5045944;28;19917;-50
2022/09/04 03:47:49;;;;;;;;;;;;;;;15.53;46.92;101889.44;5047939;28;19973;-51
2022/09/04 03:50:14;;;;;;;;;;;;;;;15.49;46.91;101893.19;5047341;28;20045;-52
2022/09/04 03:52:39;;;;;;;;;;;;;;;15.46;47.06;101904.88;5055268;28;19994;-51
2022/09/04 03:55:18;;;;;;;;;;;;;;;15.44;47.03;101905.88;5043703;28;21170;-51
2022/09/04 03:57:49;;;;;;;;;;;;;;;15.40;47.10;101907.88;5051591;28;19924;-51
2022/09/04 04:00:19;;;;;;;;;;;;;;;15.35;47.23;101904.66;5042318;28;21217;-50
2022/09/04 04:03:03;;;;;;;;;;;;;;;15.31;47.23;101906.63;5047747;28;20030;-51
2022/09/04 04:05:35;;;;;;;;;;;;;;;15.31;47.53;101908.44;5053861;28;20125;-49
2022/09/04 04:08:10;;;;;;;;;;;;;;;15.29;47.45;101905.00;5056796;28;20272;-51
2022/09/04 04:10:55;;;;;;;;;;;;;;;15.26;47.49;101911.34;5053715;28;20360;-51
2022/09/04 04:13:33;;;;;;;;;;;;;;;15.25;47.60;101914.94;5048006;28;19931;-51
2022/09/04 04:16:16;;;;;;;;;;;;;;;15.23;47.74;101914.19;5055889;28;19994;-50
2022/09/04 04:18:45;;;;;;;;;;;;;;;15.21;47.85;101914.25;5057493;28;19978;-50
2022/09/04 04:21:10;;;;;;;;;;;;;;;15.19;47.90;101912.66;5056496;28;19973;-50
2022/09/04 04:23:56;;;;;;;;;;;;;;;15.18;47.84;101926.84;5054451;28;19928;-51
2022/09/04 04:26:24;;;;;;;;;;;;;;;15.15;47.86;101922.59;5053694;28;20566;-52
2022/09/04 04:29:07;;;;;;;;;;;;;;;15.14;48.00;101934.13;5050707;28;19931;-51
2022/09/04 04:32:09;;;;;;;;;;;;;;;15.14;48.00;101928.81;5059739;28;20000;-50
2022/09/04 04:34:43;;;;;;;;;;;;;;;15.12;48.15;101936.00;5049622;28;20281;-51
2022/09/04 04:37:24;;;;;;;;;;;;;;;15.11;48.23;101934.31;5055553;28;19929;-50
2022/09/04 04:40:08;;;;;;;;;;;;;;;15.11;48.27;101936.13;5057825;28;20388;-52
2022/09/04 04:42:42;;;;;;;;;;;;;;;15.10;48.40;101935.25;5051605;28;19931;-50
2022/09/04 04:48:06;;;;;;;;;;;;;;;15.11;48.47;101942.25;5059198;28;20287;-50
2022/09/04 04:50:50;;;;;;;;;;;;;;;15.11;48.41;101939.59;5063144;28;19916;-51
2022/09/04 04:53:30;;;;;;;;;;;;;;;15.10;48.46;101945.84;5053363;28;20363;-53
2022/09/04 04:55:59;;;;;;;;;;;;;;;15.10;48.68;101953.81;5061533;28;19920;-50
2022/09/04 04:58:47;;;;;;;;;;;;;;;15.09;48.55;101954.75;5056473;28;19924;-53
2022/09/04 05:01:22;;;;;;;;;;;;;;;15.08;48.71;101955.69;5051804;28;19979;-51
2022/09/04 05:03:59;;;;;;;;;;;;;;;15.07;48.71;101956.63;5059007;28;20299;-50
2022/09/04 05:06:43;;;;;;;;;;;;;;;15.07;48.75;101970.75;5054028;28;20624;-50
2022/09/04 05:09:15;;;;;;;;;;;;;;;15.06;48.92;101971.69;5059911;28;19924;-51
2022/09/04 05:11:40;;;;;;;;;;;;;;;15.08;48.82;101971.59;5053260;28;20932;-50
2022/09/04 05:14:09;;;;;;;;;;;;;;;15.08;48.76;101974.22;5056129;28;20562;-51
2022/09/04 05:16:41;;;;;;;;;;;;;;;15.08;48.89;101976.88;5049474;28;19932;-50
2022/09/04 05:19:16;;;;;;;;;;;;;;;15.09;48.97;101975.94;5059600;28;20625;-50
2022/09/04 05:21:46;;;;;;;;;;;;;;;15.10;49.00;101969.69;5051993;28;20497;-50
2022/09/04 05:24:21;;;;;;;;;;;;;;;15.11;49.11;101970.56;5059429;28;19924;-52
2022/09/04 05:26:55;;;;;;;;;;;;;;;15.11;49.13;101974.06;5057391;28;19920;-53
2022/09/04 05:29:39;;;;;;;;;;;;;;;15.13;49.23;101984.56;5058301;28;19927;-50
2022/09/04 05:32:16;;;;;;;;;;;;;;;15.12;49.29;101985.53;5053092;28;20150;-50
2022/09/04 05:34:57;;;;;;;;;;;;;;;15.13;49.26;101996.03;5049112;28;19925;-50
2022/09/04 05:37:41;;;;;;;;;;;;;;;15.13;49.44;101992.53;5051077;28;19927;-50
2022/09/04 05:40:12;;;;;;;;;;;;;;;15.12;49.38;101996.97;5052998;28;19959;-50
2022/09/04 05:42:42;;;;;;;;;;;;;;;15.13;49.46;101996.03;5055234;28;20973;-51
2022/09/04 05:45:19;;;;;;;;;;;;;;;15.15;49.53;102002.13;5053789;28;19974;-50
2022/09/04 05:48:08;;;;;;;;;;;;;;;15.18;49.57;102001.94;5059185;28;19928;-51
2022/09/04 05:50:45;;;;;;;;;;;;;;;15.21;49.55;101999.09;5024557;28;19924;-50
2022/09/04 05:53:31;;;;;;;;;;;;;;;15.26;49.64;102008.59;5048610;28;20404;-52
2022/09/04 05:56:11;;;;;;;;;;;;;;;15.28;49.65;102014.66;5048154;28;20287;-53
2022/09/04 05:58:55;;;;;;;;;;;;;;;15.32;49.60;102014.41;5057605;28;21907;-50
2022/09/04 06:01:27;;;;;;;;;;;;;;;15.37;49.67;102019.44;5047433;28;19921;-50
2022/09/04 06:04:07;;;;;;;;;;;;;;;15.43;49.63;102020.91;5051198;28;19974;-52
2022/09/04 06:06:44;;;;;;;;;;;;;;;15.47;49.59;102020.63;5054611;28;19962;-52
2022/09/04 06:09:18;;;;;;;;;;;;;;;15.52;49.62;102020.34;5050479;28;20165;-50
2022/09/04 06:11:43;;;;;;;;;;;;;;;15.57;49.54;102026.25;5044626;28;19932;-52
2022/09/04 06:14:08;;;;;;;;;;;;;;;15.61;49.54;102029.56;5055151;28;20547;-53
2022/09/04 06:16:40;;;;;;;;;;;;;;;15.65;49.59;102031.94;5057643;28;19934;-53
2022/09/04 06:19:24;;;;;;;;;;;;;;;15.71;49.46;102030.72;5052808;28;20054;-51
2022/09/04 06:22:09;;;;;;;;;;;;;;;15.78;49.48;102041.84;5048532;28;19960;-51
2022/09/04 06:24:50;;;;;;;;;;;;;;;15.83;49.48;102035.31;5054851;28;19920;-50
2022/09/04 06:27:21;;;;;;;;;;;;;;;15.94;49.45;102047.13;5052329;28;19920;-51
2022/09/04 06:29:49;;;;;;;;;;;;;;;15.98;49.48;102046.84;5057613;28;19924;-50
2022/09/04 06:32:21;;;;;;;;;;;;;;;16.06;49.43;102050.81;5058056;28;20407;-49
2022/09/04 06:34:58;;;;;;;;;;;;;;;16.11;49.29;102044.28;5051345;28;19916;-50
2022/09/04 06:37:24;;;;;;;;;;;;;;;16.19;49.39;102040.31;5057161;28;19928;-51
2022/09/04 06:40:05;;;;;;;;;;;;;;;16.28;49.30;102045.06;5048262;28;20099;-50
2022/09/04 06:42:39;;;;;;;;;;;;;;;16.35;49.21;102041.09;5060481;28;19921;-50
2022/09/04 06:45:17;;;;;;;;;;;;;;;16.40;49.17;102041.69;5050025;28;19993;-50
2022/09/04 06:48:01;;;;;;;;;;;;;;;16.44;49.12;102045.00;5048841;28;20407;-53
2022/09/04 06:50:29;;;;;;;;;;;;;;;16.49;49.20;102044.69;5037822;28;19924;-51
2022/09/04 06:52:58;;;;;;;;;;;;;;;16.53;49.06;102035.59;5047062;28;19944;-50
2022/09/04 06:55:28;;;;;;;;;;;;;;;16.58;49.04;102039.66;5051305;28;19925;-51
2022/09/04 06:57:59;;;;;;;;;;;;;;;16.59;49.15;102049.34;5055249;28;20013;-50
2022/09/04 07:00:27;;;;;;;;;;;;;;;16.62;49.07;102050.94;5040683;28;19920;-49
2022/09/04 07:03:05;;;;;;;;;;;;;;;16.62;49.13;102061.56;5053642;28;19919;-50
2022/09/04 07:05:37;;;;;;;;;;;;;;;16.63;49.14;102071.25;5056021;28;20994;-50
2022/09/04 07:08:08;;;;;;;;;;;;;;;16.65;49.17;102068.50;5046787;28;19966;-50
2022/09/04 07:10:33;;;;;;;;;;;;;;;16.64;49.27;102072.13;5055076;28;19925;-53
2022/09/04 07:12:59;;;;;;;;;;;;;;;16.63;49.20;102079.22;5049089;28;19928;-52
2022/09/04 07:15:42;;;;;;;;;;;;;;;16.62;49.28;102080.19;5048712;28;19991;-50
2022/09/04 07:18:14;;;;;;;;;;;;;;;16.63;49.38;102079.22;5049013;28;20027;-52
2022/09/04 07:20:40;;;;;;;;;;;;;;;16.64;49.42;102083.59;5056303;28;19971;-51
2022/09/04 07:23:21;;;;;;;;;;;;;;;16.64;49.34;102080.94;5044650;28;19920;-50
2022/09/04 07:26:02;;;;;;;;;;;;;;;16.63;49.48;102084.56;5061481;28;19920;-56
2022/09/04 07:28:54;;;;;;;;;;;;;;;16.63;49.41;102081.06;5060088;28;19973;-52
2022/09/04 07:31:25;;;;;;;;;;;;;;;16.62;49.41;102080.19;5049369;28;19928;-51
2022/09/04 07:34:00;;;;;;;;;;;;;;;16.63;49.49;102083.72;5056656;28;19920;-50
2022/09/04 07:36:37;;;;;;;;;;;;;;;16.64;49.54;102093.38;5055790;28;19966;-51
2022/09/04 07:39:20;;;;;;;;;;;;;;;16.66;49.60;102091.47;5056717;28;19932;-51
2022/09/04 07:41:45;;;;;;;;;;;;;;;16.68;49.61;102085.13;5057049;28;19923;-52
2022/09/04 07:44:23;;;;;;;;;;;;;;;16.70;49.66;102082.34;5055857;28;19924;-51
2022/09/04 07:47:11;;;;;;;;;;;;;;;16.71;49.55;102078.75;5062896;28;20183;-53
2022/09/04 07:49:48;;;;;;;;;;;;;;;16.72;49.63;102083.13;5059896;28;19920;-51
2022/09/04 07:52:23;;;;;;;;;;;;;;;16.73;49.76;102082.19;5056442;28;19948;-53
2022/09/04 07:54:58;;;;;;;;;;;;;;;16.77;49.75;102099.66;5052523;28;20280;-51
2022/09/04 07:57:32;;;;;;;;;;;;;;;16.79;49.75;102097.72;5057497;28;20002;-51
2022/09/04 08:00:27;;;;;;;;;;;;;;;16.83;49.77;102098.41;5060927;28;19955;-53
2022/09/04 08:03:16;;;;;;;;;;;;;;;16.86;49.71;102095.56;5050587;28;19920;-53
2022/09/04 08:05:44;;;;;;;;;;;;;;;16.91;49.82;102096.09;5058162;28;19916;-53
2022/09/04 08:08:13;;;;;;;;;;;;;;;16.95;49.85;102092.34;5065733;28;19924;-51
2022/09/04 08:10:44;;;;;;;;;;;;;;;16.98;49.70;102085.97;5062544;28;19917;-51
2022/09/04 08:13:27;;;;;;;;;;;;;;;17.01;49.83;102086.63;5062391;28;19994;-50
2022/09/04 08:15:56;;;;;;;;;;;;;;;17.03;49.84;102100.66;5061222;28;19924;-51
2022/09/04 08:18:33;;;;;;;;;;;;;;;17.05;49.82;102109.41;5063225;28;20396;-52
2022/09/04 08:21:05;;;;;;;;;;;;;;;17.06;49.90;102105.78;5061046;28;20315;-51
2022/09/04 08:23:36;;;;;;;;;;;;;;;17.10;49.95;102102.94;5063115;28;20380;-52
2022/09/04 08:26:13;;;;;;;;;;;;;;;17.13;50.05;102105.41;5063340;28;19983;-51
2022/09/04 08:28:47;;;;;;;;;;;;;;;17.16;49.66;102106.06;5062646;28;19928;-52
2022/09/04 08:31:19;;;;;;;;;;;;;;;17.20;49.70;102106.72;5062107;28;20045;-51
2022/09/04 08:34:06;;;;;;;;;;;;;;;17.25;49.87;102101.97;5063497;28;20041;-53
2022/09/04 08:36:55;;;;;;;;;;;;;;;17.29;49.87;102103.47;5063703;28;19933;-51
2022/09/04 08:39:23;;;;;;;;;;;;;;;17.34;49.94;102105.84;5055948;28;19920;-52
2022/09/04 08:42:27;;;;;;;;;;;;;;;17.40;49.81;102107.25;5062395;28;19920;-51
2022/09/04 08:45:05;;;;;;;;;;;;;;;17.46;49.72;102107.69;4978245;28;19918;-54
2022/09/04 08:47:36;;;;;;;;;;;;;;;17.51;49.54;102099.41;4982561;28;20656;-51
2022/09/04 08:50:22;;;;;;;;;;;;;;;17.57;49.69;102104.34;5027539;28;19920;-51
2022/09/04 08:53:06;;;;;;;;;;;;;;;17.62;49.67;102112.00;5063954;28;19917;-51
2022/09/04 08:55:44;;;;;;;;;;;;;;;17.67;49.50;102107.25;5078636;28;20695;-51
2022/09/04 08:58:30;;;;;;;;;;;;;;;17.71;49.53;102115.88;5063336;28;19936;-50
2022/09/04 09:01:05;;;;;;;;;;;;;;;17.75;49.52;102106.72;5053225;28;20376;-51
2022/09/04 09:03:36;;;;;;;;;;;;;;;17.81;49.52;102114.28;5060616;28;20718;-51
2022/09/04 09:06:20;;;;;;;;;;;;;;;17.84;49.68;102116.75;5060587;28;19940;-52
2022/09/04 09:08:55;;;;;;;;;;;;;;;17.90;49.41;102113.69;5063127;28;20312;-51
2022/09/04 09:11:50;;;;;;;;;;;;;;;17.93;49.63;102105.47;5062220;28;20338;-53
2022/09/04 09:14:33;;;;;;;;;;;;;;;17.98;49.42;102102.56;5026934;28;19921;-51
2022/09/04 09:17:01;;;;;;;;;;;;;;;18.05;49.72;102114.47;5067368;28;19921;-51
2022/09/04 09:19:27;;;;;;;;;;;;;;;18.08;49.57;102108.09;5063543;28;19920;-52
2022/09/04 09:22:09;;;;;;;;;;;;;;;18.12;49.55;102105.13;5063702;28;19921;-50
2022/09/04 09:24:53;;;;;;;;;;;;;;;18.19;49.46;102108.22;5062066;28;19916;-51
2022/09/04 09:27:22;;;;;;;;;;;;;;;18.26;49.41;102109.50;5079855;28;19925;-51
2022/09/04 09:29:59;;;;;;;;;;;;;;;18.30;49.30;102101.28;5064816;28;19932;-51
2022/09/04 09:32:49;;;;;;;;;;;;;;;18.36;49.41;102106.22;5063447;28;19931;-50
2022/09/04 09:35:14;;;;;;;;;;;;;;;18.43;49.14;102105.69;5061184;28;20315;-52
2022/09/04 09:37:42;;;;;;;;;;;;;;;18.48;48.97;102102.69;5045156;28;19920;-50
2022/09/04 09:40:26;;;;;;;;;;;;;;;18.56;48.80;102095.00;5063617;28;20226;-51
2022/09/04 09:42:54;;;;;;;;;;;;;;;18.62;48.79;102095.53;5059797;28;20418;-51
2022/09/04 09:45:34;;;;;;;;;;;;;;;18.68;48.88;102095.94;5061416;28;19932;-51
2022/09/04 09:48:18;;;;;;;;;;;;;;;18.73;48.78;102087.63;5062577;28;20384;-50
2022/09/04 09:51:02;;;;;;;;;;;;;;;18.80;48.60;102094.22;5061408;28;20381;-53
2022/09/04 09:53:46;;;;;;;;;;;;;;;18.85;48.59;102096.56;5064859;28;19913;-52
2022/09/04 09:56:30;;;;;;;;;;;;;;;18.89;48.38;102092.72;5063319;28;20376;-52
2022/09/04 09:59:16;;;;;;;;;;;;;;;18.94;48.32;102095.06;5064121;28;19984;-51
2022/09/04 10:01:48;;;;;;;;;;;;;;;18.99;48.20;102092.91;5066651;28;19952;-51
2022/09/04 10:04:13;;;;;;;;;;;;;;;19.05;48.00;102089.81;5063112;28;19922;-53
2022/09/04 10:06:58;;;;;;;;;;;;;;;19.11;47.95;102092.06;5056335;28;20125;-50
2022/09/04 10:09:51;;;;;;;;;;;;;;;19.16;47.93;102097.88;5063326;28;19932;-52
2022/09/04 10:12:19;;;;;;;;;;;;;;;19.23;47.65;102105.44;5063388;28;20309;-51
2022/09/04 10:14:56;;;;;;;;;;;;;;;19.26;47.75;102087.38;5060497;28;20311;-51
2022/09/04 10:17:32;;;;;;;;;;;;;;;19.32;47.68;102086.09;5057964;28;21818;-52
2022/09/04 10:20:09;;;;;;;;;;;;;;;19.34;47.61;102093.03;5061253;28;20315;-51
2022/09/04 10:22:34;;;;;;;;;;;;;;;19.38;47.52;102085.66;5057163;28;20387;-51
2022/09/04 10:25:18;;;;;;;;;;;;;;;19.42;47.33;102095.13;5058966;28;19924;-51
2022/09/04 10:27:58;;;;;;;;;;;;;;;19.51;47.29;102093.59;5061634;28;19928;-51
2022/09/04 10:30:28;;;;;;;;;;;;;;;19.59;47.33;102095.66;5063115;28;20512;-51
2022/09/04 10:33:03;;;;;;;;;;;;;;;19.64;46.96;102093.50;5060983;28;19923;-54
2022/09/04 10:35:47;;;;;;;;;;;;;;;19.69;47.17;102087.81;5060453;28;20513;-51
2022/09/04 10:38:27;;;;;;;;;;;;;;;19.75;46.83;102096.22;5054911;28;20593;-50
2022/09/04 10:40:53;;;;;;;;;;;;;;;19.79;46.86;102092.34;5061628;28;19964;-50
2022/09/04 10:43:37;;;;;;;;;;;;;;;19.88;46.50;102103.34;5057540;28;20055;-51
2022/09/04 10:46:07;;;;;;;;;;;;;;;19.92;46.74;102102.13;5056800;28;20528;-52
2022/09/04 10:48:41;;;;;;;;;;;;;;;19.93;46.59;102104.72;5058000;28;19920;-51
2022/09/04 10:51:19;;;;;;;;;;;;;;;19.97;46.60;102099.97;5057828;28;20018;-51
2022/09/04 10:53:50;;;;;;;;;;;;;;;20.03;46.56;102099.53;5058313;28;19924;-52
2022/09/04 10:56:25;;;;;;;;;;;;;;;20.09;46.04;102107.03;5058414;28;19923;-51
2022/09/04 10:59:09;;;;;;;;;;;;;;;20.14;46.07;102096.00;5059782;28;19927;-51
2022/09/04 11:01:35;;;;;;;;;;;;;;;20.24;46.13;102101.47;5060173;28;19989;-51
2022/09/04 11:04:18;;;;;;;;;;;;;;;20.33;45.76;102095.44;5058773;28;20339;-50
2022/09/04 11:06:48;;;;;;;;;;;;;;;20.40;45.90;102096.66;5060662;28;19974;-51
2022/09/04 11:09:21;;;;;;;;;;;;;;;20.46;45.46;102106.00;5060023;28;19927;-51
2022/09/04 11:12:06;;;;;;;;;;;;;;;20.52;45.25;102110.00;5060085;28;19943;-50
2022/09/04 11:14:55;;;;;;;;;;;;;;;20.58;45.19;102108.66;5057740;28;20534;-51
2022/09/04 11:17:20;;;;;;;;;;;;;;;20.65;45.24;102102.72;5060690;28;19921;-51
2022/09/04 11:19:59;;;;;;;;;;;;;;;20.72;44.99;102105.78;5061764;28;19977;-53
2022/09/04 11:22:33;;;;;;;;;;;;;;;20.79;45.11;102107.00;5059845;28;19942;-50
2022/09/04 11:25:17;;;;;;;;;;;;;;;20.87;45.00;102098.38;5061243;28;20373;-51
2022/09/04 11:27:51;;;;;;;;;;;;;;;20.94;44.66;102114.78;5060571;28;20415;-51
2022/09/04 11:30:22;;;;;;;;;;;;;;;21.00;44.71;102104.44;5058510;28;19923;-51
2022/09/04 11:33:06;;;;;;;;;;;;;;;21.07;44.37;102098.59;5060501;28;20375;-51
2022/09/04 11:35:37;;;;;;;;;;;;;;;21.15;44.44;102104.16;5063440;28;20556;-51
2022/09/04 11:38:06;;;;;;;;;;;;;;;21.20;44.37;102091.25;5062599;28;19970;-51
2022/09/04 11:40:50;;;;;;;;;;;;;;;21.27;44.06;102097.78;5061921;28;19976;-51
2022/09/04 11:43:35;;;;;;;;;;;;;;;21.39;43.95;102093.25;5063083;28;21133;-51
2022/09/04 11:46:03;;;;;;;;;;;;;;;21.45;43.45;102089.22;5062370;28;19931;-52
2022/09/04 11:48:36;;;;;;;;;;;;;;;21.50;43.38;102079.00;5067122;28;19913;-52
2022/09/04 11:51:38;;;;;;;;;;;;;;;21.56;43.46;102075.78;5066160;28;19942;-56
2022/09/04 11:54:04;;;;;;;;;;;;;;;21.65;43.13;102081.41;5053055;28;19921;-53
2022/09/04 11:56:32;;;;;;;;;;;;;;;21.68;43.03;102073.94;5046200;28;19999;-54
2022/09/04 11:59:04;;;;;;;;;;;;;;;21.72;43.01;102077.19;5063670;28;19917;-53
2022/09/04 12:01:29;;;;;;;;;;;;;;;21.74;42.71;102072.56;5059556;28;19925;-53
2022/09/04 12:04:04;;;;;;;;;;;;;;;21.78;42.69;102074.03;5062782;28;19920;-54
2022/09/04 12:06:57;;;;;;;;;;;;;;;21.85;42.81;102077.88;5057781;28;20132;-55
2022/09/04 12:09:28;;;;;;;;;;;;;;;21.90;42.52;102075.66;5047738;28;19924;-53
2022/09/04 12:11:56;;;;;;;;;;;;;;;21.95;42.78;102066.38;5063064;28;19974;-54
2022/09/04 12:14:40;;;;;;;;;;;;;;;22.01;42.61;102073.88;5050627;28;19967;-51
2022/09/04 12:17:24;;;;;;;;;;;;;;;22.09;42.29;102063.34;5048568;28;20980;-52
2022/09/04 12:19:56;;;;;;;;;;;;;;;22.19;42.28;102064.25;5055058;28;19978;-50
2022/09/04 12:22:41;;;;;;;;;;;;;;;22.25;42.09;102062.84;5053638;28;20015;-53
2022/09/04 12:25:25;;;;;;;;;;;;;;;22.28;41.87;102062.59;5051784;28;20386;-51
2022/09/04 12:28:09;;;;;;;;;;;;;;;22.33;42.04;102059.50;5051281;28;19920;-52
2022/09/04 12:30:48;;;;;;;;;;;;;;;22.36;41.88;102059.25;5046494;28;19978;-52
2022/09/04 12:33:27;;;;;;;;;;;;;;;22.41;41.90;102059.72;5051829;28;19920;-50
2022/09/04 12:36:04;;;;;;;;;;;;;;;22.47;41.50;102056.50;5055048;28;19954;-51
2022/09/04 12:38:48;;;;;;;;;;;;;;;22.56;41.69;102059.38;5052781;28;19963;-51
2022/09/04 12:41:15;;;;;;;;;;;;;;;22.59;41.60;102062.63;5054647;28;20044;-52
2022/09/04 12:43:44;;;;;;;;;;;;;;;22.63;41.37;102065.88;5058053;28;19923;-51
2022/09/04 12:46:21;;;;;;;;;;;;;;;22.64;41.33;102067.56;5056011;28;19920;-53
2022/09/04 12:48:46;;;;;;;;;;;;;;;22.68;41.32;102063.63;5055988;28;19924;-51
2022/09/04 12:51:13;;;;;;;;;;;;;;;22.74;41.13;102063.09;5056239;28;19928;-51
2022/09/04 12:53:44;;;;;;;;;;;;;;;22.79;41.13;102071.56;5060533;28;19923;-52
2022/09/04 12:56:25;;;;;;;;;;;;;;;22.87;40.88;102062.00;5055135;28;20019;-51
2022/09/04 12:59:11;;;;;;;;;;;;;;;22.95;40.71;102067.50;5056918;28;19924;-51
2022/09/04 13:01:39;;;;;;;;;;;;;;;23.04;40.71;102064.03;5052931;28;19921;-53
2022/09/04 13:04:07;;;;;;;;;;;;;;;23.12;40.41;102061.47;5051512;28;20011;-51
2022/09/04 13:06:47;;;;;;;;;;;;;;;23.24;40.20;102069.41;5053570;28;19927;-54
2022/09/04 13:09:15;;;;;;;;;;;;;;;23.34;40.09;102070.28;5060945;28;20303;-51
2022/09/04 13:11:50;;;;;;;;;;;;;;;23.43;40.20;102063.22;5059909;28;19917;-51
2022/09/04 13:14:30;;;;;;;;;;;;;;;23.54;40.21;102072.97;5054476;28;19929;-50
2022/09/04 13:16:58;;;;;;;;;;;;;;;23.63;39.96;102080.19;5051913;28;19920;-52
2022/09/04 13:19:34;;;;;;;;;;;;;;;23.67;39.88;102080.75;5060211;28;19921;-52
2022/09/04 13:22:06;;;;;;;;;;;;;;;23.66;39.80;102085.28;5055975;28;19963;-52